Terminal Aerodrome Forecast
Issued by NWS

Home | Current Version | Previous Version | Text Only | Print | Product List | Glossary On
Versions: 1 2 3 4 5 6 7 8 9 10 11 12 13 14 15 16 17 18 19 20 21 22
000
FTUS41 KGYX 210534
TAFAUG
TAF
KAUG 210534Z 2106/2206 13014G21KT 2SM RA BR OVC009 WS020/15045KT
     FM211200 10012KT 3SM -TSRA BR OVC007CB
     FM212100 25007KT P6SM BKN040
     FM220000 30009KT P6SM BKN100=

USA.gov is the U.S. government's official web portal to all federal, state and local government web resources and services.